Oosterschelde — PGNP — position and weather

sailwx.info

Track history (hours):
 
Tides and Currents Weather Stations Pressure Air Temp Water Temp Dewpoint Dewpoint Depression Visibility Wind Speed Wind Dir Waves Ship Positions

Oosterschelde (Netherlands)

Ship's website: http://www.oosterschelde.nl/indexuk.htm

Last reported at 2017-Aug-22 11:15 UTC. Time now 2017-Aug-22 22:34 UTC.
Position N 49°15' W 002°17'.

Length 49 m; draft 2.9 m.

Type: Sailing vessel. MMSI: 246010985.

Date/timePositionNaut miles runAvg speedWind from/ knotsBaromVisibWave heightAir tempDewpointWater temp
2017-Aug-22 11:15N 49°15' W 002°17'2 7.7
2017-Aug-22 10:58N 49°17' W 002°15'3 6.2
2017-Aug-22 10:30N 49°19' W 002°12'3 7.0
2017-Aug-22 10:00N 49°17' W 002°07'6 9.4
2017-Aug-22 09:24N 49°14' W 001°59'2 4.9
2017-Aug-22 08:53N 49°12' W 001°59'1 2.2
2017-Aug-22 08:24N 49°12' W 002°00'0 0.0
2017-Aug-22 00:31N 49°12' W 002°01'0 0.0
2017-Aug-22 00:10N 49°12' W 002°01'0 0.0
2017-Aug-21 23:58N 49°12' W 002°01'0 0.0
2017-Aug-21 18:52N 49°12' W 002°01'0 0.0
2017-Aug-21 14:58N 49°12' W 002°01'0 0.0
2017-Aug-21 13:58N 49°12' W 002°01'0 0.0
2017-Aug-21 13:25N 49°12' W 002°01'0 0.0
2017-Aug-21 07:46N 49°12' W 002°01'0 0.0
2017-Aug-21 07:28N 49°12' W 002°01'0 0.0
2017-Aug-21 06:55N 49°12' W 002°01'0 0.0
2017-Aug-21 05:58N 49°12' W 002°01'  
2017-Aug-18 21:11N 49°49' W 003°18'1 8.3
2017-Aug-18 21:00N 49°50' W 003°20'4 7.8
2017-Aug-18 20:30N 49°52' W 003°25'4 7.9
2017-Aug-18 20:00N 49°54' W 003°30'4 8.1
2017-Aug-18 19:30N 49°56' W 003°36'4 8.7
2017-Aug-18 19:00N 49°58' W 003°42'4 8.5
2017-Aug-18 18:30N 50°01' W 003°47'4 9.0
2017-Aug-18 18:00N 50°03' W 003°53'5 9.7
2017-Aug-18 17:30N 50°06' W 003°59'5 9.0
2017-Aug-18 17:00N 50°09' W 004°04'4 8.2
2017-Aug-18 16:31N 50°11' W 004°10'5 9.0
2017-Aug-18 15:58N 50°09' W 004°17'5 8.7
2017-Aug-18 15:26N 50°07' W 004°24'4 9.5
2017-Aug-18 15:00N 50°06' W 004°29'5 9.4
2017-Aug-18 14:28N 50°04' W 004°36'9 9.5
2017-Aug-18 13:29N 49°59' W 004°49'  
Track history (hours):
 
Tides and Currents Weather Stations Pressure Air Temp Water Temp Dewpoint Dewpoint Depression Visibility Wind Speed Wind Dir Waves Ship Positions

Oosterschelde (Netherlands)

Ship's website: http://www.oosterschelde.nl/indexuk.htm

Last reported at 2017-Aug-22 11:15 UTC. Time now 2017-Aug-22 22:34 UTC.
Position N 49°15' W 002°17'.

Length 49 m; draft 2.9 m.

Type: Sailing vessel. MMSI: 246010985.

Date/timePositionNaut miles runAvg speedWind from/ knotsBaromVisibWave heightAir tempDewpointWater temp
2017-Aug-22 11:15N 49°15' W 002°17'2 7.7
2017-Aug-22 10:58N 49°17' W 002°15'3 6.2
2017-Aug-22 10:30N 49°19' W 002°12'3 7.0
2017-Aug-22 10:00N 49°17' W 002°07'6 9.4
2017-Aug-22 09:24N 49°14' W 001°59'2 4.9
2017-Aug-22 08:53N 49°12' W 001°59'1 2.2
2017-Aug-22 08:24N 49°12' W 002°00'0 0.0
2017-Aug-22 00:31N 49°12' W 002°01'0 0.0
2017-Aug-22 00:10N 49°12' W 002°01'0 0.0
2017-Aug-21 23:58N 49°12' W 002°01'0 0.0
2017-Aug-21 18:52N 49°12' W 002°01'0 0.0
2017-Aug-21 14:58N 49°12' W 002°01'0 0.0
2017-Aug-21 13:58N 49°12' W 002°01'0 0.0
2017-Aug-21 13:25N 49°12' W 002°01'0 0.0
2017-Aug-21 07:46N 49°12' W 002°01'0 0.0
2017-Aug-21 07:28N 49°12' W 002°01'0 0.0
2017-Aug-21 06:55N 49°12' W 002°01'0 0.0
2017-Aug-21 05:58N 49°12' W 002°01'  
2017-Aug-18 21:11N 49°49' W 003°18'1 8.3
2017-Aug-18 21:00N 49°50' W 003°20'4 7.8
2017-Aug-18 20:30N 49°52' W 003°25'4 7.9
2017-Aug-18 20:00N 49°54' W 003°30'4 8.1
2017-Aug-18 19:30N 49°56' W 003°36'4 8.7
2017-Aug-18 19:00N 49°58' W 003°42'4 8.5
2017-Aug-18 18:30N 50°01' W 003°47'4 9.0
2017-Aug-18 18:00N 50°03' W 003°53'5 9.7
2017-Aug-18 17:30N 50°06' W 003°59'5 9.0
2017-Aug-18 17:00N 50°09' W 004°04'4 8.2
2017-Aug-18 16:31N 50°11' W 004°10'5 9.0
2017-Aug-18 15:58N 50°09' W 004°17'5 8.7
2017-Aug-18 15:26N 50°07' W 004°24'4 9.5
2017-Aug-18 15:00N 50°06' W 004°29'5 9.4
2017-Aug-18 14:28N 50°04' W 004°36'9 9.5
2017-Aug-18 13:29N 49°59' W 004°49'  

Dump ship's entire track history